Time;durP1;ratioP1;P1;durP2;ratioP2;P2;SDS_P1;SDS_P2;PMS_P1;PMS_P2;Temp;Humidity;BMP_temperature;BMP_pressure;BME280_temperature;BME280_humidity;BME280_pressure;Samples;Min_cycle;Max_cycle;Signal;HPM_P1;HPM_P2
2023/01/09 00:01:37;;;;;;;8.00;2.72;;;6.10;99.90;;;;;;5069682;28;20047;-85
2023/01/09 00:04:03;;;;;;;7.57;2.60;;;6.10;99.90;;;;;;5067049;28;20508;-86
2023/01/09 00:06:29;;;;;;;7.43;2.53;;;6.10;99.90;;;;;;5071154;28;20036;-85
2023/01/09 00:08:55;;;;;;;9.55;2.78;;;6.20;99.90;;;;;;5055249;28;20055;-86
2023/01/09 00:11:21;;;;;;;8.10;2.70;;;6.10;99.90;;;;;;5055821;28;20058;-85
2023/01/09 00:13:47;;;;;;;8.40;2.45;;;6.10;99.90;;;;;;5084293;28;20482;-86
2023/01/09 00:16:13;;;;;;;9.50;2.67;;;6.20;99.90;;;;;;5081596;28;20135;-86
2023/01/09 00:18:39;;;;;;;9.18;3.00;;;6.20;99.90;;;;;;5055280;28;20494;-85
2023/01/09 00:21:07;;;;;;;10.43;2.50;;;6.20;99.90;;;;;;5072198;28;20043;-84
2023/01/09 00:23:33;;;;;;;8.32;2.53;;;6.30;99.90;;;;;;5090948;28;20095;-85
2023/01/09 00:26:07;;;;;;;9.80;2.80;;;6.30;99.90;;;;;;5083546;28;20036;-86
2023/01/09 00:28:34;;;;;;;8.15;2.50;;;6.30;99.90;;;;;;5067943;28;20056;-86
2023/01/09 00:31:01;;;;;;;8.77;2.90;;;6.30;99.90;;;;;;5061115;28;20056;-86
2023/01/09 00:33:31;;;;;;;6.93;2.53;;;6.40;99.90;;;;;;5082532;28;20052;-86
2023/01/09 00:35:57;;;;;;;7.72;2.85;;;6.40;99.90;;;;;;5049016;28;20094;-85
2023/01/09 00:38:23;;;;;;;8.02;2.65;;;6.40;99.90;;;;;;5055068;28;20048;-86
2023/01/09 00:40:49;;;;;;;9.32;2.53;;;6.50;99.90;;;;;;5067381;28;20040;-86
2023/01/09 00:43:16;;;;;;;10.15;2.65;;;6.50;99.90;;;;;;5055356;28;20041;-85
2023/01/09 00:45:41;;;;;;;4.63;1.80;;;6.60;99.90;;;;;;5040185;28;20084;-83
2023/01/09 00:48:12;;;;;;;5.07;1.55;;;6.60;99.90;;;;;;5031074;28;20124;-85
2023/01/09 00:50:38;;;;;;;5.07;1.70;;;6.60;99.90;;;;;;5057745;28;20041;-84
2023/01/09 00:53:12;;;;;;;5.25;1.60;;;6.90;99.90;;;;;;5044223;28;20281;-84
2023/01/09 00:55:38;;;;;;;3.78;1.35;;;6.60;99.90;;;;;;5065120;28;20063;-84
2023/01/09 00:58:05;;;;;;;4.35;1.50;;;6.60;99.90;;;;;;5066899;28;20040;-84
2023/01/09 01:00:31;;;;;;;4.07;1.50;;;6.60;99.90;;;;;;5040685;28;20138;-84
2023/01/09 01:02:57;;;;;;;4.13;1.40;;;6.60;99.90;;;;;;5046527;28;20049;-84
2023/01/09 01:08:12;;;;;;;3.58;1.13;;;6.70;99.90;;;;;;5078462;28;20401;-84
2023/01/09 01:10:38;;;;;;;3.13;1.02;;;6.50;99.90;;;;;;5047876;28;20037;-84
2023/01/09 01:13:03;;;;;;;3.20;1.10;;;6.50;99.90;;;;;;5059994;28;20037;-84
2023/01/09 01:15:30;;;;;;;3.80;1.08;;;6.50;99.90;;;;;;5024534;28;20029;-84
2023/01/09 01:17:56;;;;;;;2.17;1.02;;;6.40;99.90;;;;;;5068804;28;20066;-85
2023/01/09 01:20:21;;;;;;;2.45;0.90;;;6.40;99.90;;;;;;5065055;28;20067;-84
2023/01/09 01:22:47;;;;;;;2.08;0.80;;;6.40;99.90;;;;;;5068309;28;20481;-84
2023/01/09 01:25:16;;;;;;;4.88;1.10;;;6.40;99.90;;;;;;5067724;28;20364;-85
2023/01/09 01:27:42;;;;;;;3.25;1.00;;;6.30;99.90;;;;;;5068232;28;20036;-85
2023/01/09 01:30:12;;;;;;;2.53;0.90;;;6.30;99.90;;;;;;5082286;28;20044;-85
2023/01/09 01:32:38;;;;;;;1.13;0.68;;;6.30;99.90;;;;;;5051714;28;20194;-84
2023/01/09 01:35:05;;;;;;;2.45;1.00;;;6.30;99.90;;;;;;5069227;28;20049;-84
2023/01/09 01:37:32;;;;;;;2.97;1.05;;;6.30;99.90;;;;;;5052666;28;20042;-85
2023/01/09 01:39:58;;;;;;;2.60;0.85;;;6.70;99.90;;;;;;5068797;28;20048;-84
2023/01/09 01:42:24;;;;;;;2.10;0.82;;;6.30;99.90;;;;;;5046313;28;20379;-84
2023/01/09 01:45:03;;;;;;;2.55;0.88;;;6.30;99.90;;;;;;5046674;28;20094;-84
2023/01/09 01:47:35;;;;;;;2.35;1.20;;;6.40;99.90;;;;;;5047712;28;20041;-84
2023/01/09 01:50:06;;;;;;;4.72;1.52;;;6.40;99.90;;;;;;5037926;28;20079;-83
2023/01/09 01:52:33;;;;;;;3.80;1.50;;;6.40;99.90;;;;;;5048268;28;20044;-84
2023/01/09 01:54:59;;;;;;;5.20;1.52;;;6.40;99.90;;;;;;5061787;28;20072;-84
2023/01/09 01:57:25;;;;;;;3.05;1.25;;;6.50;99.90;;;;;;5069645;28;20041;-85
2023/01/09 01:59:55;;;;;;;6.65;1.70;;;6.80;99.90;;;;;;5059733;28;20040;-84
2023/01/09 02:02:26;;;;;;;6.20;1.80;;;6.50;99.90;;;;;;5082181;28;20071;-84
2023/01/09 02:04:53;;;;;;;7.00;1.95;;;6.60;99.90;;;;;;5049933;28;20041;-84
2023/01/09 02:07:19;;;;;;;7.00;1.80;;;6.60;99.90;;;;;;5052092;28;20048;-84
2023/01/09 02:09:45;;;;;;;7.03;1.80;;;6.70;99.90;;;;;;5021161;28;20037;-84
2023/01/09 02:12:22;;;;;;;6.50;2.00;;;6.80;99.90;;;;;;5039902;28;20068;-84
2023/01/09 02:15:04;;;;;;;7.80;1.98;;;6.70;99.90;;;;;;5062077;28;20114;-84
2023/01/09 02:17:48;;;;;;;7.33;2.20;;;6.70;99.90;;;;;;5064225;28;20115;-84
2023/01/09 02:20:38;;;;;;;8.68;2.20;;;6.80;99.90;;;;;;5064574;28;20296;-84
2023/01/09 02:23:22;;;;;;;7.70;2.17;;;6.80;99.90;;;;;;5060817;28;20128;-83
2023/01/09 02:25:48;;;;;;;6.28;2.03;;;6.80;99.90;;;;;;5067222;28;20262;-83
2023/01/09 02:28:51;;;;;;;10.32;2.22;;;6.80;99.90;;;;;;5072768;28;20623;-84
2023/01/09 02:31:32;;;;;;;9.67;2.27;;;6.70;99.90;;;;;;5070299;28;20405;-84
2023/01/09 02:34:15;;;;;;;6.03;2.00;;;6.70;99.90;;;;;;5070832;28;20045;-84
2023/01/09 02:37:02;;;;;;;7.78;2.10;;;6.70;99.90;;;;;;5056464;28;20045;-84
2023/01/09 02:40:09;;;;;;;7.15;2.13;;;6.90;99.90;;;;;;5054375;28;20409;-84
2023/01/09 02:42:36;;;;;;;8.18;2.33;;;6.70;99.90;;;;;;5049346;28;20048;-84
2023/01/09 02:45:02;;;;;;;10.48;2.80;;;6.60;99.90;;;;;;5082786;28;20178;-85
2023/01/09 02:47:28;;;;;;;7.88;2.33;;;6.60;99.90;;;;;;5072122;28;20040;-85
2023/01/09 02:49:57;;;;;;;8.40;2.05;;;6.60;99.90;;;;;;5056278;28;20090;-85
2023/01/09 02:52:33;;;;;;;8.05;2.25;;;6.60;99.90;;;;;;5055030;28;20116;-85
2023/01/09 02:55:08;;;;;;;6.90;2.30;;;6.50;99.90;;;;;;5058971;28;20119;-84
2023/01/09 02:58:05;;;;;;;9.00;2.30;;;6.50;99.90;;;;;;5069832;28;20052;-85
2023/01/09 03:00:43;;;;;;;8.48;2.10;;;6.50;99.90;;;;;;5044684;28;20047;-85
2023/01/09 03:03:37;;;;;;;8.27;2.30;;;6.40;99.90;;;;;;5049204;28;20041;-85
2023/01/09 03:06:24;;;;;;;9.35;2.60;;;7.50;99.90;;;;;;5067620;28;20048;-85
2023/01/09 03:09:19;;;;;;;7.68;2.20;;;6.40;99.90;;;;;;5073772;28;20360;-85
2023/01/09 03:11:51;;;;;;;8.23;2.17;;;6.30;99.90;;;;;;5072805;28;20049;-84
2023/01/09 03:14:21;;;;;;;6.47;2.03;;;6.60;99.90;;;;;;5072822;28;20119;-85
2023/01/09 03:16:51;;;;;;;7.32;2.50;;;6.30;99.90;;;;;;5070910;28;20046;-85
2023/01/09 03:19:20;;;;;;;8.10;2.20;;;6.30;99.90;;;;;;5072211;28;20133;-85
2023/01/09 03:21:47;;;;;;;8.40;2.28;;;6.30;99.90;;;;;;5048183;28;20047;-85
2023/01/09 03:24:13;;;;;;;8.32;2.15;;;6.20;99.90;;;;;;5054283;28;20047;-85
2023/01/09 03:26:39;;;;;;;7.10;2.22;;;6.20;99.90;;;;;;5052970;28;20128;-85
2023/01/09 03:29:05;;;;;;;11.48;2.60;;;6.50;99.90;;;;;;5054649;28;20056;-86
2023/01/09 03:31:31;;;;;;;10.90;2.40;;;6.10;99.90;;;;;;5080269;28;20152;-84
2023/01/09 03:33:57;;;;;;;7.13;2.45;;;6.10;99.90;;;;;;5074967;28;20059;-85
2023/01/09 03:36:23;;;;;;;9.93;2.63;;;6.40;99.90;;;;;;5075788;28;20067;-85
2023/01/09 03:38:50;;;;;;;9.65;2.70;;;6.10;99.90;;;;;;5080405;28;20056;-83
2023/01/09 03:41:16;;;;;;;11.68;2.85;;;6.00;99.90;;;;;;5068471;28;20119;-84
2023/01/09 03:43:42;;;;;;;8.70;2.63;;;6.00;99.90;;;;;;5056876;28;20067;-85
2023/01/09 03:46:08;;;;;;;7.78;2.72;;;6.00;99.90;;;;;;5036494;28;20529;-85
2023/01/09 03:48:34;;;;;;;9.52;3.30;;;5.90;99.90;;;;;;5038338;28;20494;-83
2023/01/09 03:51:00;;;;;;;9.18;3.10;;;5.90;99.90;;;;;;5036131;28;20044;-85
2023/01/09 03:53:27;;;;;;;9.80;3.47;;;6.00;99.90;;;;;;5029262;28;20036;-85
2023/01/09 03:55:55;;;;;;;8.27;3.05;;;5.90;99.90;;;;;;5051440;28;20045;-85
2023/01/09 03:58:21;;;;;;;10.85;3.28;;;5.80;99.90;;;;;;5061615;28;20056;-85
2023/01/09 04:00:48;;;;;;;11.75;3.35;;;5.80;99.90;;;;;;5052644;28;20028;-85
2023/01/09 04:03:15;;;;;;;8.85;2.75;;;5.80;99.90;;;;;;5069744;28;20093;-85
2023/01/09 04:05:43;;;;;;;9.93;2.67;;;6.30;99.90;;;;;;5053310;28;20512;-84
2023/01/09 04:08:09;;;;;;;9.80;3.00;;;5.80;99.90;;;;;;5067291;28;20595;-85
2023/01/09 04:10:35;;;;;;;11.73;3.22;;;5.70;99.90;;;;;;5069757;28;20060;-85
2023/01/09 04:13:01;;;;;;;10.13;3.28;;;5.70;99.90;;;;;;5050748;28;20477;-85
2023/01/09 04:15:26;;;;;;;9.15;3.53;;;5.70;99.90;;;;;;5079908;28;20497;-85
2023/01/09 04:17:52;;;;;;;11.07;3.40;;;5.70;99.90;;;;;;5063132;28;20072;-85
2023/01/09 04:20:18;;;;;;;12.45;3.40;;;6.00;99.90;;;;;;5053848;28;20048;-85
2023/01/09 04:22:43;;;;;;;11.40;3.53;;;5.70;99.90;;;;;;5044352;28;20485;-85
2023/01/09 04:25:09;;;;;;;9.00;3.30;;;5.70;99.90;;;;;;5047131;28;20135;-85
2023/01/09 04:27:35;;;;;;;9.93;3.58;;;5.60;99.90;;;;;;5049390;28;20045;-85
2023/01/09 04:30:01;;;;;;;8.77;3.20;;;5.60;99.90;;;;;;5058595;28;20101;-85
2023/01/09 04:32:27;;;;;;;10.52;3.97;;;5.60;99.90;;;;;;5068524;28;20036;-85
2023/01/09 04:34:53;;;;;;;9.82;3.50;;;5.60;99.90;;;;;;5041615;28;20459;-85
2023/01/09 04:37:20;;;;;;;10.77;3.85;;;5.80;99.90;;;;;;5041986;28;20065;-85
2023/01/09 04:39:46;;;;;;;10.57;3.75;;;5.50;99.90;;;;;;5056403;28;20040;-85
2023/01/09 04:42:12;;;;;;;12.57;4.28;;;5.60;99.90;;;;;;5028316;28;20044;-85
2023/01/09 04:44:38;;;;;;;12.48;3.83;;;5.50;99.90;;;;;;5051034;28;20036;-86
2023/01/09 04:47:04;;;;;;;10.75;3.83;;;5.90;99.90;;;;;;5041302;28;20071;-85
2023/01/09 04:49:29;;;;;;;11.77;3.60;;;5.50;99.90;;;;;;5031489;28;20037;-85
2023/01/09 04:51:55;;;;;;;11.93;3.80;;;5.50;99.90;;;;;;5073431;28;20056;-86
2023/01/09 04:54:21;;;;;;;12.80;4.07;;;5.50;99.90;;;;;;5058359;28;20608;-86
2023/01/09 04:56:47;;;;;;;12.40;3.83;;;5.40;99.90;;;;;;5042688;28;20041;-85
2023/01/09 04:59:13;;;;;;;10.60;4.10;;;5.40;99.90;;;;;;5019700;28;20446;-85
2023/01/09 05:01:39;;;;;;;12.63;4.03;;;5.40;99.90;;;;;;5066390;28;20036;-85
2023/01/09 05:04:05;;;;;;;12.25;4.28;;;5.30;99.90;;;;;;5055548;28;20033;-86
2023/01/09 05:06:32;;;;;;;11.15;4.20;;;5.30;99.90;;;;;;5041905;28;20533;-86
2023/01/09 05:08:58;;;;;;;11.60;4.50;;;5.30;99.90;;;;;;5050481;28;20491;-85
2023/01/09 05:11:24;;;;;;;11.80;4.57;;;5.60;99.90;;;;;;5057900;28;20040;-85
2023/01/09 05:13:50;;;;;;;12.98;4.93;;;5.30;99.90;;;;;;5052290;28;20302;-86
2023/01/09 05:16:16;;;;;;;11.02;4.43;;;5.30;99.90;;;;;;5050005;28;20597;-86
2023/01/09 05:18:42;;;;;;;11.98;4.70;;;5.30;99.90;;;;;;5053233;28;20048;-85
2023/01/09 05:21:08;;;;;;;11.55;4.72;;;5.30;99.90;;;;;;5060815;28;20051;-85
2023/01/09 05:23:34;;;;;;;14.18;5.50;;;5.30;99.90;;;;;;5064028;28;20037;-86
2023/01/09 05:25:59;;;;;;;13.85;5.03;;;5.30;99.90;;;;;;5064048;28;20402;-84
2023/01/09 05:28:25;;;;;;;13.80;5.43;;;5.30;99.90;;;;;;5083464;28;20095;-86
2023/01/09 05:30:51;;;;;;;12.57;5.75;;;5.60;99.90;;;;;;5062651;28;20122;-85
2023/01/09 05:33:16;;;;;;;14.10;6.30;;;5.30;99.90;;;;;;5042125;28;20041;-85
2023/01/09 05:35:42;;;;;;;14.55;6.07;;;5.40;99.90;;;;;;5048242;28;20041;-85
2023/01/09 05:38:08;;;;;;;12.85;6.75;;;5.70;99.90;;;;;;5030781;28;20082;-85
2023/01/09 05:40:33;;;;;;;12.80;6.60;;;5.40;99.90;;;;;;5070388;28;20148;-85
2023/01/09 05:42:59;;;;;;;14.80;7.93;;;5.60;99.90;;;;;;5047317;28;20460;-85
2023/01/09 05:45:26;;;;;;;14.57;7.55;;;5.60;99.90;;;;;;5056395;28;20041;-86
2023/01/09 05:47:52;;;;;;;14.30;7.53;;;5.50;99.90;;;;;;5060054;28;20112;-86
2023/01/09 05:50:17;;;;;;;18.92;8.98;;;5.60;99.90;;;;;;5058442;28;20116;-85
2023/01/09 05:52:43;;;;;;;17.10;8.73;;;5.70;99.90;;;;;;5030189;28;20655;-85
2023/01/09 05:55:10;;;;;;;18.45;8.65;;;5.60;99.90;;;;;;5062062;28;20041;-86
2023/01/09 05:57:36;;;;;;;17.08;9.25;;;5.70;99.90;;;;;;5058714;28;20406;-86
2023/01/09 06:00:03;;;;;;;15.20;8.90;;;5.70;99.90;;;;;;5056653;28;20138;-85
2023/01/09 06:02:29;;;;;;;18.02;9.77;;;5.70;99.90;;;;;;5051384;28;20064;-85
2023/01/09 06:04:55;;;;;;;17.67;9.02;;;5.70;99.90;;;;;;5057293;28;20559;-86
2023/01/09 06:07:20;;;;;;;16.35;9.20;;;5.70;99.90;;;;;;5035469;28;20052;-86
2023/01/09 06:09:46;;;;;;;19.05;10.18;;;5.70;99.90;;;;;;5076826;28;20097;-86
2023/01/09 06:12:12;;;;;;;20.38;10.63;;;6.00;99.90;;;;;;5045420;28;20297;-86
2023/01/09 06:14:37;;;;;;;18.35;10.70;;;5.80;99.90;;;;;;5064021;28;20075;-86
2023/01/09 06:17:03;;;;;;;19.25;10.77;;;5.80;99.90;;;;;;5041629;28;20477;-85
2023/01/09 06:19:29;;;;;;;18.60;10.95;;;5.80;99.90;;;;;;5045290;28;20041;-86
2023/01/09 06:21:54;;;;;;;19.63;11.23;;;5.80;99.90;;;;;;5043392;28;20461;-86
2023/01/09 06:24:20;;;;;;;20.27;10.65;;;5.80;99.90;;;;;;5071408;28;20103;-86
2023/01/09 06:26:46;;;;;;;18.80;10.93;;;5.80;99.90;;;;;;5042172;28;20045;-86
2023/01/09 06:29:12;;;;;;;21.48;11.95;;;5.80;99.90;;;;;;5043617;28;20891;-86
2023/01/09 06:31:37;;;;;;;17.92;11.40;;;6.10;99.90;;;;;;5042990;28;20061;-87
2023/01/09 06:34:03;;;;;;;22.17;12.18;;;5.90;99.90;;;;;;5028999;28;20037;-86
2023/01/09 06:36:29;;;;;;;19.42;11.70;;;5.90;99.90;;;;;;5050862;28;20049;-85
2023/01/09 06:38:54;;;;;;;20.42;11.00;;;6.20;99.90;;;;;;5041986;28;20048;-86
2023/01/09 06:41:20;;;;;;;20.33;11.82;;;5.90;99.90;;;;;;5081241;28;20111;-84
2023/01/09 06:43:46;;;;;;;20.42;11.25;;;6.00;99.90;;;;;;5071198;28;20128;-86
2023/01/09 06:46:12;;;;;;;20.52;11.68;;;5.90;99.90;;;;;;5084403;28;20471;-85
2023/01/09 06:48:37;;;;;;;22.58;12.02;;;6.30;99.90;;;;;;5059323;28;20041;-86
2023/01/09 06:51:03;;;;;;;18.60;11.55;;;5.90;99.90;;;;;;5044128;28;20076;-86
2023/01/09 06:53:29;;;;;;;20.23;11.63;;;6.00;99.90;;;;;;5051439;28;20259;-86
2023/01/09 06:55:55;;;;;;;18.77;12.02;;;6.00;99.90;;;;;;5039201;28;20116;-85
2023/01/09 06:58:20;;;;;;;19.25;12.05;;;6.10;99.90;;;;;;5056140;28;20401;-86
2023/01/09 07:00:48;;;;;;;19.27;11.60;;;6.00;99.90;;;;;;5038263;28;20524;-86
2023/01/09 07:03:18;;;;;;;21.25;12.18;;;5.90;99.90;;;;;;5056108;28;20036;-86
2023/01/09 07:05:45;;;;;;;20.20;11.60;;;6.00;99.90;;;;;;5054488;28;20040;-86
2023/01/09 07:08:11;;;;;;;20.42;11.23;;;5.90;99.90;;;;;;5050348;28;20386;-86
2023/01/09 07:10:37;;;;;;;18.67;11.05;;;5.90;99.90;;;;;;5045030;28;20166;-85
2023/01/09 07:13:03;;;;;;;20.90;11.57;;;5.90;99.90;;;;;;5042279;28;20041;-86
2023/01/09 07:15:28;;;;;;;18.80;10.63;;;5.90;99.90;;;;;;5059469;28;20085;-86
2023/01/09 07:17:54;;;;;;;20.23;12.13;;;5.90;99.90;;;;;;5050348;28;20522;-86
2023/01/09 07:20:20;;;;;;;19.65;10.93;;;5.90;99.90;;;;;;5032985;28;20060;-85
2023/01/09 07:22:46;;;;;;;19.27;10.65;;;5.90;99.90;;;;;;5063382;28;20040;-86
2023/01/09 07:25:12;;;;;;;21.70;11.40;;;5.90;99.90;;;;;;5060065;28;20044;-86
2023/01/09 07:27:38;;;;;;;18.48;10.60;;;5.90;99.90;;;;;;5048814;28;20049;-86
2023/01/09 07:30:05;;;;;;;20.08;10.63;;;5.90;99.90;;;;;;5076347;28;20114;-85
2023/01/09 07:32:32;;;;;;;19.00;10.38;;;5.90;99.90;;;;;;5046314;28;20470;-84
2023/01/09 07:34:57;;;;;;;17.83;9.60;;;5.90;99.90;;;;;;5050320;28;20076;-86
2023/01/09 07:37:24;;;;;;;17.15;9.65;;;5.90;99.90;;;;;;5065292;28;20072;-87
2023/01/09 07:39:49;;;;;;;16.77;8.77;;;5.90;99.90;;;;;;5045536;28;20040;-86
2023/01/09 07:42:15;;;;;;;17.38;9.23;;;5.90;99.90;;;;;;5033838;28;20036;-86
2023/01/09 07:44:41;;;;;;;16.00;8.88;;;5.90;99.90;;;;;;5043157;28;20501;-87
2023/01/09 07:47:07;;;;;;;16.08;9.20;;;6.00;99.90;;;;;;5043676;28;20052;-86
2023/01/09 07:49:33;;;;;;;18.60;9.60;;;5.90;99.90;;;;;;5066149;28;20053;-86
2023/01/09 07:51:58;;;;;;;18.05;9.38;;;5.90;99.90;;;;;;5061947;28;20033;-86
2023/01/09 07:54:24;;;;;;;17.30;8.90;;;6.20;99.90;;;;;;5065079;28;20397;-86
2023/01/09 07:56:50;;;;;;;16.58;9.02;;;5.90;99.90;;;;;;5056993;28;20397;-86
2023/01/09 07:59:16;;;;;;;15.00;8.07;;;6.10;99.90;;;;;;5061920;28;20075;-86
2023/01/09 08:01:41;;;;;;;15.45;8.07;;;6.10;99.90;;;;;;5059083;28;20043;-86
2023/01/09 08:04:07;;;;;;;15.70;7.72;;;5.90;99.90;;;;;;5047975;28;20045;-87
2023/01/09 08:06:33;;;;;;;13.95;7.75;;;5.80;99.90;;;;;;5056876;28;20377;-86
2023/01/09 08:08:59;;;;;;;14.98;7.47;;;5.80;99.90;;;;;;5048837;28;20028;-86
2023/01/09 08:11:24;;;;;;;15.70;7.78;;;7.20;99.90;;;;;;5061204;28;20523;-86
2023/01/09 08:13:50;;;;;;;13.82;7.35;;;5.80;99.90;;;;;;5064366;28;20040;-86
2023/01/09 08:16:16;;;;;;;14.20;7.32;;;5.80;99.90;;;;;;5063704;28;20520;-86
2023/01/09 08:18:42;;;;;;;13.80;7.00;;;5.80;99.90;;;;;;5062178;28;20592;-87
2023/01/09 08:21:10;;;;;;;16.33;7.20;;;5.80;99.90;;;;;;5062242;28;20040;-87
2023/01/09 08:23:36;;;;;;;15.00;7.15;;;6.20;99.90;;;;;;5075798;28;20044;-87
2023/01/09 08:26:02;;;;;;;17.60;7.18;;;5.80;99.90;;;;;;5060702;28;20418;-87
2023/01/09 08:28:28;;;;;;;16.83;6.80;;;6.10;99.90;;;;;;5061505;28;20044;-87
2023/01/09 08:30:54;;;;;;;14.38;6.43;;;5.80;99.90;;;;;;5061017;28;20516;-87
2023/01/09 08:33:20;;;;;;;14.15;6.40;;;5.90;99.90;;;;;;5058318;28;20080;-87
2023/01/09 08:35:45;;;;;;;12.55;6.07;;;5.90;99.90;;;;;;5060101;28;20117;-87
2023/01/09 08:38:11;;;;;;;17.08;6.25;;;5.90;99.90;;;;;;5026738;28;20045;-87
2023/01/09 08:40:37;;;;;;;13.88;6.28;;;5.90;99.90;;;;;;5044874;28;20064;-88
2023/01/09 08:48:32;;;;;;;12.70;5.50;;;5.90;99.90;;;;;;5047216;28;20038;-86
2023/01/09 08:50:57;;;;;;;11.35;5.68;;;5.90;99.90;;;;;;5035895;28;20520;-86
2023/01/09 08:53:23;;;;;;;13.27;5.40;;;5.90;99.90;;;;;;5029324;28;20127;-87
2023/01/09 08:55:49;;;;;;;12.90;5.45;;;5.90;99.90;;;;;;5045298;28;20036;-87
2023/01/09 08:58:15;;;;;;;14.38;5.85;;;6.00;99.90;;;;;;5012156;28;20032;-87
2023/01/09 09:00:41;;;;;;;12.27;5.38;;;6.10;99.90;;;;;;5058032;28;20068;-86
2023/01/09 09:03:07;;;;;;;12.73;5.65;;;6.10;99.90;;;;;;5047865;28;20139;-88
2023/01/09 09:05:33;;;;;;;12.45;5.22;;;6.00;99.90;;;;;;5061166;28;20040;-85
2023/01/09 09:07:59;;;;;;;12.43;4.43;;;6.10;99.90;;;;;;5064185;28;20577;-86
2023/01/09 09:10:27;;;;;;;12.68;4.75;;;6.00;99.90;;;;;;5042684;28;20041;-86
2023/01/09 09:12:55;;;;;;;11.65;4.63;;;6.00;99.90;;;;;;5060929;28;20179;-86
2023/01/09 09:15:22;;;;;;;12.55;4.72;;;6.10;99.90;;;;;;5062269;28;20170;-86
2023/01/09 09:17:53;;;;;;;13.55;4.47;;;6.10;99.90;;;;;;5041509;28;20028;-86
2023/01/09 09:20:24;;;;;;;11.13;4.50;;;6.10;99.90;;;;;;5042790;28;20029;-87
2023/01/09 09:22:50;;;;;;;12.32;4.82;;;6.10;99.90;;;;;;5053212;28;20044;-87
2023/01/09 09:25:16;;;;;;;12.90;4.72;;;6.40;99.90;;;;;;5045907;28;20463;-86
2023/01/09 09:27:42;;;;;;;13.30;4.40;;;6.20;99.90;;;;;;5064678;28;20055;-86
2023/01/09 09:30:10;;;;;;;11.75;4.57;;;6.20;99.90;;;;;;5062273;28;20080;-86
2023/01/09 09:32:37;;;;;;;15.13;4.90;;;6.20;99.90;;;;;;5061469;28;20501;-86
2023/01/09 09:35:03;;;;;;;10.23;4.13;;;6.20;99.90;;;;;;5043444;28;20036;-86
2023/01/09 09:37:30;;;;;;;11.80;3.95;;;6.20;99.90;;;;;;5046347;28;20067;-87
2023/01/09 09:39:55;;;;;;;11.00;4.28;;;6.30;99.90;;;;;;5042928;28;20040;-86
2023/01/09 09:45:27;;;;;;;13.18;4.05;;;6.30;99.90;;;;;;5060023;28;20056;-87
2023/01/09 09:48:20;;;;;;;10.40;4.03;;;6.30;99.90;;;;;;5036671;28;20190;-87
2023/01/09 09:50:46;;;;;;;;;;;6.30;99.90;;;;;;5046622;28;20044;-87
2023/01/09 09:53:26;;;;;;;9.88;3.70;;;6.30;99.90;;;;;;5069117;28;19927;-86
2023/01/09 09:55:52;;;;;;;11.63;3.90;;;6.40;99.90;;;;;;5051720;28;20051;-87
2023/01/09 09:58:39;;;;;;;10.95;4.18;;;6.40;99.90;;;;;;5054961;28;20520;-87
2023/01/09 10:01:07;;;;;;;10.82;3.90;;;6.70;99.90;;;;;;5074888;28;20100;-87
2023/01/09 10:03:50;;;;;;;13.38;4.18;;;6.40;99.90;;;;;;5056011;28;20078;-87
2023/01/09 10:06:59;;;;;;;11.15;4.00;;;6.50;99.90;;;;;;5064344;28;20099;-88
2023/01/09 10:09:43;;;;;;;12.68;3.85;;;6.50;99.90;;;;;;5008602;28;20516;-85
2023/01/09 10:12:26;;;;;;;11.07;4.00;;;6.50;99.90;;;;;;5061853;28;20071;-86
2023/01/09 10:14:52;;;;;;;13.52;3.90;;;6.60;99.90;;;;;;5060705;28;20033;-85
2023/01/09 10:17:27;;;;;;;10.65;3.60;;;6.60;99.90;;;;;;5022376;28;20561;-86
2023/01/09 10:20:18;;;;;;;10.45;3.65;;;6.60;99.90;;;;;;5046566;28;20040;-86
2023/01/09 10:22:53;;;;;;;10.05;3.33;;;6.70;99.90;;;;;;5044253;28;20616;-86
2023/01/09 10:25:41;;;;;;;9.02;3.70;;;6.70;99.90;;;;;;5057109;28;20157;-86
2023/01/09 10:28:44;;;;;;;11.20;3.72;;;6.70;99.90;;;;;;5068974;28;20056;-86
2023/01/09 10:31:27;;;;;;;9.82;3.70;;;6.80;99.90;;;;;;5071403;28;20055;-86
2023/01/09 10:34:13;;;;;;;10.93;3.75;;;6.80;99.90;;;;;;5042991;28;20051;-86
2023/01/09 10:36:42;;;;;;;10.60;3.80;;;6.80;99.90;;;;;;5081253;28;20045;-87
2023/01/09 10:39:21;;;;;;;11.07;3.28;;;6.90;99.90;;;;;;5049958;28;20128;-87
2023/01/09 10:42:03;;;;;;;10.73;3.38;;;6.90;99.90;;;;;;5047133;28;20079;-85
2023/01/09 10:44:37;;;;;;;9.50;3.40;;;7.00;99.90;;;;;;5080731;28;20048;-87
2023/01/09 10:47:36;;;;;;;11.65;3.47;;;7.00;99.90;;;;;;5064492;28;20041;-87
2023/01/09 10:50:21;;;;;;;12.90;3.90;;;7.00;99.90;;;;;;5062780;28;20036;-87
2023/01/09 10:52:50;;;;;;;10.65;3.80;;;7.00;99.90;;;;;;5065364;28;20036;-87
2023/01/09 10:55:32;;;;;;;9.25;3.38;;;7.00;99.90;;;;;;5041863;28;20112;-86
2023/01/09 10:58:02;;;;;;;12.43;3.17;;;7.10;99.90;;;;;;5065840;28;20127;-85
2023/01/09 11:00:27;;;;;;;11.80;3.53;;;7.10;99.90;;;;;;5064711;28;20074;-85
2023/01/09 11:02:53;;;;;;;13.35;3.40;;;7.10;99.90;;;;;;5042481;28;20080;-86
2023/01/09 11:05:27;;;;;;;8.93;3.28;;;7.10;99.90;;;;;;5048508;28;20558;-86
2023/01/09 11:08:16;;;;;;;8.80;3.72;;;7.10;99.90;;;;;;5065791;28;20059;-86
2023/01/09 11:10:48;;;;;;;10.43;3.20;;;7.10;99.90;;;;;;5066083;28;20413;-86
2023/01/09 11:13:17;;;;;;;9.95;3.50;;;7.20;99.90;;;;;;5066946;28;20041;-86
2023/01/09 11:15:43;;;;;;;8.85;3.10;;;7.20;99.90;;;;;;5062570;28;20690;-87
2023/01/09 11:18:23;;;;;;;9.60;2.92;;;7.20;99.90;;;;;;5048268;28;20385;-86
2023/01/09 11:20:49;;;;;;;10.23;2.97;;;7.20;99.90;;;;;;5064007;28;20044;-86
2023/01/09 11:23:41;;;;;;;12.27;3.80;;;7.20;99.90;;;;;;5047640;28;20095;-86
2023/01/09 11:26:21;;;;;;;10.82;3.30;;;7.20;99.90;;;;;;5045282;28;20052;-86
2023/01/09 11:29:04;;;;;;;8.77;3.22;;;7.20;99.90;;;;;;5064405;28;20062;-86
2023/01/09 11:31:30;;;;;;;9.20;3.13;;;7.20;99.90;;;;;;5043018;28;20044;-87
2023/01/09 11:33:56;;;;;;;10.95;3.50;;;7.50;99.90;;;;;;5064356;28;20102;-86
2023/01/09 11:36:24;;;;;;;10.30;3.38;;;7.20;99.90;;;;;;5062059;28;20400;-87
2023/01/09 11:38:58;;;;;;;10.15;3.20;;;7.20;99.90;;;;;;5040617;28;20064;-87
2023/01/09 11:41:31;;;;;;;10.05;3.08;;;7.20;99.90;;;;;;5062330;28;20083;-87
2023/01/09 11:43:58;;;;;;;14.40;3.90;;;7.20;99.90;;;;;;5066328;28;20040;-87
2023/01/09 11:46:33;;;;;;;10.70;3.42;;;7.60;99.90;;;;;;5033063;28;20047;-86
2023/01/09 11:49:01;;;;;;;9.23;3.70;;;7.20;99.90;;;;;;5059975;28;20048;-86
2023/01/09 11:51:33;;;;;;;10.68;3.80;;;7.20;99.90;;;;;;5059342;28;20037;-86
2023/01/09 11:54:16;;;;;;;13.00;3.65;;;7.20;99.90;;;;;;5077500;28;20105;-87
2023/01/09 11:56:43;;;;;;;10.90;3.47;;;7.20;99.90;;;;;;5062897;28;20036;-86
2023/01/09 11:59:21;;;;;;;9.55;3.65;;;7.20;99.90;;;;;;5040507;28;20119;-86
2023/01/09 12:02:25;;;;;;;10.10;3.67;;;7.20;99.90;;;;;;5042170;28;20112;-86
2023/01/09 12:04:59;;;;;;;11.18;3.53;;;7.20;99.90;;;;;;5062255;28;20045;-86
2023/01/09 12:08:01;;;;;;;11.77;3.95;;;7.20;99.90;;;;;;5063837;28;20032;-86
2023/01/09 12:10:36;;;;;;;10.52;4.32;;;7.20;99.90;;;;;;5060020;28;20338;-86
2023/01/09 12:13:11;;;;;;;8.80;3.63;;;7.20;99.90;;;;;;5042711;28;20068;-86
2023/01/09 12:16:19;;;;;;;12.20;4.28;;;7.20;99.90;;;;;;5049793;28;20036;-86
2023/01/09 12:19:06;;;;;;;9.30;3.63;;;7.20;99.90;;;;;;5033554;28;20052;-87
2023/01/09 12:21:34;;;;;;;10.35;3.88;;;7.20;99.90;;;;;;5065250;28;20044;-87
2023/01/09 12:24:23;;;;;;;12.00;4.30;;;7.20;99.90;;;;;;5053374;28;20052;-86
2023/01/09 12:27:03;;;;;;;11.30;4.30;;;7.20;99.90;;;;;;5044992;28;20036;-85
2023/01/09 12:29:58;;;;;;;13.30;4.65;;;7.20;99.90;;;;;;5045999;28;20083;-86
2023/01/09 12:32:37;;;;;;;10.10;4.00;;;7.20;99.90;;;;;;5059639;28;20142;-86
2023/01/09 12:35:11;;;;;;;12.02;4.13;;;7.20;99.90;;;;;;5058944;28;20044;-86
2023/01/09 12:37:55;;;;;;;11.15;4.57;;;7.20;99.90;;;;;;5059104;28;20037;-86
2023/01/09 12:40:39;;;;;;;12.02;4.30;;;7.20;99.90;;;;;;5056748;28;20044;-87
2023/01/09 12:43:07;;;;;;;;;;;7.20;99.90;;;;;;5042768;28;20040;-86
2023/01/09 12:46:11;;;;;;;12.40;4.32;;;7.20;99.90;;;;;;5063883;28;19932;-85
2023/01/09 12:48:53;;;;;;;10.15;4.90;;;7.30;99.90;;;;;;5040937;28;20051;-86
2023/01/09 12:51:19;;;;;;;13.07;4.70;;;7.30;99.90;;;;;;5057924;28;20036;-86
2023/01/09 12:54:01;;;;;;;10.95;4.68;;;7.30;99.90;;;;;;5070322;28;20301;-86
2023/01/09 12:56:59;;;;;;;10.13;5.03;;;7.40;99.90;;;;;;5067436;28;20063;-84
2023/01/09 12:59:43;;;;;;;15.32;5.18;;;6.10;99.90;;;;;;5071630;28;20036;-84
2023/01/09 13:02:38;;;;;;;12.65;4.63;;;7.30;99.90;;;;;;5071684;28;20037;-85
2023/01/09 13:05:20;;;;;;;12.35;5.00;;;7.40;99.90;;;;;;5072777;28;20041;-84
2023/01/09 13:07:59;;;;;;;12.63;4.97;;;7.40;99.90;;;;;;5065431;28;20385;-85
2023/01/09 13:10:37;;;;;;;12.48;5.10;;;7.40;99.90;;;;;;5068070;28;20048;-85
2023/01/09 13:13:09;;;;;;;12.55;5.43;;;7.30;99.90;;;;;;5053424;28;20077;-86
2023/01/09 13:15:41;;;;;;;12.52;5.30;;;7.30;99.90;;;;;;5060103;28;20597;-86
2023/01/09 13:18:23;;;;;;;13.68;5.43;;;7.40;99.90;;;;;;5056852;28;20036;-86
2023/01/09 13:20:52;;;;;;;11.35;5.40;;;7.40;99.90;;;;;;5039186;28;20048;-85